This is the latest recevied weather packets stored in our database for station/object DH1FR-13. If no packets are shown the sender has not sent any weather packets the latest 10 day(s).
| Time | Temp. | Humidity | Pressure | Rain* | Wind** | Luminosity | Snow |
|---|---|---|---|---|---|---|---|
| 1787394601 | 17.22° C | 73% | 1020.7 hPa | 2.03 mm | 0 m/s | - | - |
| 1787394002 | 16.67° C | 76% | 1020.8 hPa | 2.03 mm | 0 m/s | - | - |
| 1787393401 | 16.11° C | 80% | 1020.6 hPa | 2.03 mm | 0 m/s | - | - |
| 1787392801 | 16.11° C | 80% | 1020.6 hPa | 2.03 mm | 0 m/s | - | - |
| 1787392200 | 16.67° C | 80% | 1020.4 hPa | 2.03 mm | 0 m/s | - | - |
| 1787391601 | 16.11° C | 80% | 1020.5 hPa | 2.03 mm | 0 m/s | - | - |
| 1787391001 | 17.22° C | 79% | 1020.3 hPa | 2.03 mm | 0 m/s | - | - |
| 1787390401 | 16.11° C | 84% | 1020.4 hPa | 2.03 mm | 0 m/s | - | - |
| 1787389801 | 15.56° C | 87% | 1020.3 hPa | 2.03 mm | 0 m/s | - | - |
| 1787389201 | 15.56° C | 88% | 1020.1 hPa | 2.03 mm | 0 m/s | - | - |
| 1787388601 | 15° C | 90% | 1020 hPa | 2.03 mm | 0 m/s | - | - |
| 1787388001 | 14.44° C | 92% | 1019.8 hPa | 2.03 mm | 0 m/s | - | - |
| 1787387400 | 13.89° C | 94% | 1020 hPa | 2.03 mm | 0 m/s | - | - |
| 1787386801 | 13.89° C | 95% | 1019.9 hPa | 2.03 mm | 0 m/s | - | - |
| 1787386201 | 13.89° C | 96% | 1019.8 hPa | 2.03 mm | 0 m/s | - | - |
| 1787385600 | 13.89° C | 96% | 1019.6 hPa | 2.03 mm | 0 m/s | - | - |
| 1787385000 | 13.33° C | 97% | 1019.2 hPa | 2.03 mm | 0 m/s | - | - |
| 1787384401 | 13.89° C | 97% | 1019.5 hPa | 2.03 mm | 0 m/s | - | - |
| 1787383801 | 13.89° C | 97% | 1019.1 hPa | 2.03 mm | 0 m/s | - | - |
| 1787383201 | 13.33° C | 97% | 1019.3 hPa | 2.03 mm | 0 m/s | - | - |
| 1787382601 | 13.33° C | 98% | 1019 hPa | 2.03 mm | 0 m/s | - | - |
| 1787382001 | 13.33° C | 98% | 1018.8 hPa | 2.03 mm | 0 m/s | - | - |
| 1787381401 | 12.78° C | 98% | 1018.9 hPa | 2.03 mm | 0 m/s | - | - |
| 1787380801 | 12.78° C | 98% | 1018.8 hPa | 2.03 mm | 0 m/s | - | - |
| 1787380201 | 12.78° C | 98% | 1018.7 hPa | 2.03 mm | 0 m/s | - | - |
* Rain latest hour (hover to see other rain measurements)
** Current wind speed in m/s (hover to see current wind gust speed)